Terminal Aerodrome Forecast
Issued by NWS

Home | Current Version | Previous Version | Text Only | Print | Product List | Glossary On
Versions: 1 2 3 4 5 6 7 8 9 10 11 12 13 14 15 16 17 18 19 20 21 22 23 24 25 26 27 28 29 30 31 32 33 34 35
567
FTUS45 KPSR 231738
TAFIWA
TAF
KIWA 231738Z 2318/2418 14008KT P6SM VCSH SCT040 BKN050
      TEMPO 2318/2320 VRB06KT BKN040
     FM232000 24010KT P6SM VCSH BKN040 OVC060
      TEMPO 2320/2322 24012G22KT 6SM -SHRA BKN035
     FM232300 25015KT P6SM BKN060
     FM240300 26012KT 6SM -RA SCT025 OVC040
      TEMPO 2403/2407 5SM RA BR BKN030 OVC050
     FM240800 26010KT P6SM SCT050 BKN100=

USA.gov is the U.S. government's official web portal to all federal, state and local government web resources and services.